sensor_id;sensor_type;location;lat;lon;timestamp;P1;durP1;ratioP1;P2;durP2;ratioP2
54259;SDS011;40172;53.022;7.012;2023-04-03T00:01:09;3.60;;;0.82;;
54259;SDS011;40172;53.022;7.012;2023-04-03T00:03:35;1.55;;;0.70;;
54259;SDS011;40172;53.022;7.012;2023-04-03T00:06:01;3.83;;;1.20;;
54259;SDS011;40172;53.022;7.012;2023-04-03T00:08:27;0.77;;;0.60;;
54259;SDS011;40172;53.022;7.012;2023-04-03T00:10:55;3.15;;;1.05;;
54259;SDS011;40172;53.022;7.012;2023-04-03T00:13:21;0.73;;;0.40;;
54259;SDS011;40172;53.022;7.012;2023-04-03T00:15:46;1.70;;;0.63;;
54259;SDS011;40172;53.022;7.012;2023-04-03T00:18:12;3.53;;;1.00;;
54259;SDS011;40172;53.022;7.012;2023-04-03T00:20:38;1.38;;;0.85;;
54259;SDS011;40172;53.022;7.012;2023-04-03T00:23:03;2.25;;;0.60;;
54259;SDS011;40172;53.022;7.012;2023-04-03T00:25:29;2.90;;;0.88;;
54259;SDS011;40172;53.022;7.012;2023-04-03T00:27:55;0.60;;;0.50;;
54259;SDS011;40172;53.022;7.012;2023-04-03T00:30:21;1.65;;;0.80;;
54259;SDS011;40172;53.022;7.012;2023-04-03T00:32:48;1.10;;;0.70;;
54259;SDS011;40172;53.022;7.012;2023-04-03T00:35:14;2.63;;;0.80;;
54259;SDS011;40172;53.022;7.012;2023-04-03T00:37:43;3.92;;;0.60;;
54259;SDS011;40172;53.022;7.012;2023-04-03T00:40:09;0.77;;;0.63;;
54259;SDS011;40172;53.022;7.012;2023-04-03T00:42:37;1.95;;;1.08;;
54259;SDS011;40172;53.022;7.012;2023-04-03T00:47:28;1.42;;;0.68;;
54259;SDS011;40172;53.022;7.012;2023-04-03T00:49:55;6.65;;;0.73;;
54259;SDS011;40172;53.022;7.012;2023-04-03T00:52:23;3.17;;;0.50;;
54259;SDS011;40172;53.022;7.012;2023-04-03T00:54:54;1.00;;;0.57;;
54259;SDS011;40172;53.022;7.012;2023-04-03T00:57:22;0.98;;;0.70;;
54259;SDS011;40172;53.022;7.012;2023-04-03T00:59:50;3.22;;;1.65;;
54259;SDS011;40172;53.022;7.012;2023-04-03T01:02:20;0.73;;;0.63;;
54259;SDS011;40172;53.022;7.012;2023-04-03T01:04:46;0.32;;;0.32;;
54259;SDS011;40172;53.022;7.012;2023-04-03T01:07:16;1.55;;;0.95;;
54259;SDS011;40172;53.022;7.012;2023-04-03T01:09:44;1.30;;;0.77;;
54259;SDS011;40172;53.022;7.012;2023-04-03T01:14:46;0.73;;;0.55;;
54259;SDS011;40172;53.022;7.012;2023-04-03T01:22:51;1.58;;;0.85;;
54259;SDS011;40172;53.022;7.012;2023-04-03T01:25:34;4.22;;;0.90;;
54259;SDS011;40172;53.022;7.012;2023-04-03T01:28:02;1.67;;;0.85;;
54259;SDS011;40172;53.022;7.012;2023-04-03T01:30:49;2.03;;;0.60;;
54259;SDS011;40172;53.022;7.012;2023-04-03T01:33:21;1.08;;;0.80;;
54259;SDS011;40172;53.022;7.012;2023-04-03T01:35:47;15.93;;;1.08;;
54259;SDS011;40172;53.022;7.012;2023-04-03T01:38:12;1.45;;;0.60;;
54259;SDS011;40172;53.022;7.012;2023-04-03T01:40:38;1.30;;;0.80;;
54259;SDS011;40172;53.022;7.012;2023-04-03T01:43:03;3.45;;;1.35;;
54259;SDS011;40172;53.022;7.012;2023-04-03T01:45:29;7.05;;;1.60;;
54259;SDS011;40172;53.022;7.012;2023-04-03T01:47:55;1.67;;;1.13;;
54259;SDS011;40172;53.022;7.012;2023-04-03T01:50:20;0.75;;;0.75;;
54259;SDS011;40172;53.022;7.012;2023-04-03T01:52:46;5.05;;;2.40;;
54259;SDS011;40172;53.022;7.012;2023-04-03T01:55:12;0.75;;;0.50;;
54259;SDS011;40172;53.022;7.012;2023-04-03T01:57:37;2.13;;;1.05;;
54259;SDS011;40172;53.022;7.012;2023-04-03T02:00:03;2.95;;;1.15;;
54259;SDS011;40172;53.022;7.012;2023-04-03T02:02:29;2.15;;;1.05;;
54259;SDS011;40172;53.022;7.012;2023-04-03T02:04:55;1.65;;;1.17;;
54259;SDS011;40172;53.022;7.012;2023-04-03T02:07:20;3.85;;;0.73;;
54259;SDS011;40172;53.022;7.012;2023-04-03T02:09:46;3.13;;;1.10;;
54259;SDS011;40172;53.022;7.012;2023-04-03T02:12:11;2.83;;;1.13;;
54259;SDS011;40172;53.022;7.012;2023-04-03T02:14:37;1.48;;;0.82;;
54259;SDS011;40172;53.022;7.012;2023-04-03T02:17:02;1.60;;;0.88;;
54259;SDS011;40172;53.022;7.012;2023-04-03T02:19:30;1.27;;;0.90;;
54259;SDS011;40172;53.022;7.012;2023-04-03T02:21:56;4.40;;;0.80;;
54259;SDS011;40172;53.022;7.012;2023-04-03T02:24:22;1.08;;;0.73;;
54259;SDS011;40172;53.022;7.012;2023-04-03T02:26:47;6.32;;;1.17;;
54259;SDS011;40172;53.022;7.012;2023-04-03T02:29:13;1.95;;;0.98;;
54259;SDS011;40172;53.022;7.012;2023-04-03T02:31:38;0.88;;;0.70;;
54259;SDS011;40172;53.022;7.012;2023-04-03T02:34:04;2.72;;;1.17;;
54259;SDS011;40172;53.022;7.012;2023-04-03T02:36:30;2.08;;;1.20;;
54259;SDS011;40172;53.022;7.012;2023-04-03T02:38:56;5.20;;;1.42;;
54259;SDS011;40172;53.022;7.012;2023-04-03T02:41:21;0.88;;;0.52;;
54259;SDS011;40172;53.022;7.012;2023-04-03T02:43:47;1.98;;;0.55;;
54259;SDS011;40172;53.022;7.012;2023-04-03T02:46:13;1.45;;;0.80;;
54259;SDS011;40172;53.022;7.012;2023-04-03T02:48:40;2.28;;;0.80;;
54259;SDS011;40172;53.022;7.012;2023-04-03T02:51:06;1.50;;;1.08;;
54259;SDS011;40172;53.022;7.012;2023-04-03T02:53:31;1.35;;;0.98;;
54259;SDS011;40172;53.022;7.012;2023-04-03T02:55:57;2.10;;;0.52;;
54259;SDS011;40172;53.022;7.012;2023-04-03T02:58:22;1.10;;;0.65;;
54259;SDS011;40172;53.022;7.012;2023-04-03T03:00:48;0.85;;;0.43;;
54259;SDS011;40172;53.022;7.012;2023-04-03T03:03:13;2.60;;;0.85;;
54259;SDS011;40172;53.022;7.012;2023-04-03T03:05:39;1.27;;;0.55;;
54259;SDS011;40172;53.022;7.012;2023-04-03T03:08:05;9.35;;;3.00;;
54259;SDS011;40172;53.022;7.012;2023-04-03T03:10:31;0.65;;;0.40;;
54259;SDS011;40172;53.022;7.012;2023-04-03T03:12:56;4.28;;;0.95;;
54259;SDS011;40172;53.022;7.012;2023-04-03T03:15:22;1.85;;;0.75;;
54259;SDS011;40172;53.022;7.012;2023-04-03T03:17:47;0.93;;;0.30;;
54259;SDS011;40172;53.022;7.012;2023-04-03T03:20:13;0.98;;;0.80;;
54259;SDS011;40172;53.022;7.012;2023-04-03T03:22:41;1.23;;;0.80;;
54259;SDS011;40172;53.022;7.012;2023-04-03T03:25:07;2.22;;;0.77;;
54259;SDS011;40172;53.022;7.012;2023-04-03T03:27:32;2.10;;;0.80;;
54259;SDS011;40172;53.022;7.012;2023-04-03T03:29:58;4.65;;;1.25;;
54259;SDS011;40172;53.022;7.012;2023-04-03T03:32:24;1.92;;;1.05;;
54259;SDS011;40172;53.022;7.012;2023-04-03T03:34:49;2.13;;;1.08;;
54259;SDS011;40172;53.022;7.012;2023-04-03T03:37:15;2.35;;;0.93;;
54259;SDS011;40172;53.022;7.012;2023-04-03T03:39:40;2.55;;;1.33;;
54259;SDS011;40172;53.022;7.012;2023-04-03T03:42:06;4.90;;;2.03;;
54259;SDS011;40172;53.022;7.012;2023-04-03T03:44:32;2.60;;;1.08;;
54259;SDS011;40172;53.022;7.012;2023-04-03T03:46:57;2.03;;;1.02;;
54259;SDS011;40172;53.022;7.012;2023-04-03T03:49:23;1.00;;;0.82;;
54259;SDS011;40172;53.022;7.012;2023-04-03T03:51:48;1.42;;;1.13;;
54259;SDS011;40172;53.022;7.012;2023-04-03T03:54:15;0.65;;;0.60;;
54259;SDS011;40172;53.022;7.012;2023-04-03T03:56:41;2.65;;;1.02;;
54259;SDS011;40172;53.022;7.012;2023-04-03T03:59:06;1.00;;;0.65;;
54259;SDS011;40172;53.022;7.012;2023-04-03T04:01:32;1.70;;;0.90;;
54259;SDS011;40172;53.022;7.012;2023-04-03T04:03:58;3.00;;;1.13;;
54259;SDS011;40172;53.022;7.012;2023-04-03T04:06:23;2.53;;;1.38;;
54259;SDS011;40172;53.022;7.012;2023-04-03T04:08:49;1.27;;;0.75;;
54259;SDS011;40172;53.022;7.012;2023-04-03T04:11:15;0.80;;;0.70;;
54259;SDS011;40172;53.022;7.012;2023-04-03T04:13:40;1.27;;;0.93;;
54259;SDS011;40172;53.022;7.012;2023-04-03T04:16:06;1.88;;;1.05;;
54259;SDS011;40172;53.022;7.012;2023-04-03T04:18:32;1.50;;;1.17;;
54259;SDS011;40172;53.022;7.012;2023-04-03T04:20:59;2.72;;;1.45;;
54259;SDS011;40172;53.022;7.012;2023-04-03T04:23:25;3.25;;;1.23;;
54259;SDS011;40172;53.022;7.012;2023-04-03T04:25:50;1.98;;;1.17;;
54259;SDS011;40172;53.022;7.012;2023-04-03T04:28:16;1.35;;;1.10;;
54259;SDS011;40172;53.022;7.012;2023-04-03T04:30:42;2.60;;;1.25;;
54259;SDS011;40172;53.022;7.012;2023-04-03T04:33:08;3.10;;;1.25;;
54259;SDS011;40172;53.022;7.012;2023-04-03T04:35:35;3.00;;;1.05;;
54259;SDS011;40172;53.022;7.012;2023-04-03T04:38:00;2.25;;;1.25;;
54259;SDS011;40172;53.022;7.012;2023-04-03T04:40:26;1.48;;;1.02;;
54259;SDS011;40172;53.022;7.012;2023-04-03T04:42:52;4.88;;;0.95;;
54259;SDS011;40172;53.022;7.012;2023-04-03T04:45:17;0.90;;;0.82;;
54259;SDS011;40172;53.022;7.012;2023-04-03T04:47:43;0.90;;;0.75;;
54259;SDS011;40172;53.022;7.012;2023-04-03T04:50:09;1.55;;;0.60;;
54259;SDS011;40172;53.022;7.012;2023-04-03T04:52:36;1.38;;;0.95;;
54259;SDS011;40172;53.022;7.012;2023-04-03T04:55:02;3.70;;;1.20;;
54259;SDS011;40172;53.022;7.012;2023-04-03T04:57:28;3.45;;;1.75;;
54259;SDS011;40172;53.022;7.012;2023-04-03T04:59:54;1.15;;;0.80;;
54259;SDS011;40172;53.022;7.012;2023-04-03T05:02:19;2.75;;;1.02;;
54259;SDS011;40172;53.022;7.012;2023-04-03T05:04:45;1.48;;;1.23;;
54259;SDS011;40172;53.022;7.012;2023-04-03T05:07:11;2.13;;;1.50;;
54259;SDS011;40172;53.022;7.012;2023-04-03T05:09:36;1.95;;;1.05;;
54259;SDS011;40172;53.022;7.012;2023-04-03T05:12:02;2.60;;;1.00;;
54259;SDS011;40172;53.022;7.012;2023-04-03T05:14:28;8.73;;;0.93;;
54259;SDS011;40172;53.022;7.012;2023-04-03T05:16:54;1.08;;;0.93;;
54259;SDS011;40172;53.022;7.012;2023-04-03T05:19:22;3.63;;;1.17;;
54259;SDS011;40172;53.022;7.012;2023-04-03T05:21:48;4.10;;;1.55;;
54259;SDS011;40172;53.022;7.012;2023-04-03T05:24:14;1.52;;;1.23;;
54259;SDS011;40172;53.022;7.012;2023-04-03T05:26:40;5.78;;;1.52;;
54259;SDS011;40172;53.022;7.012;2023-04-03T05:29:06;12.13;;;1.60;;
54259;SDS011;40172;53.022;7.012;2023-04-03T05:31:32;2.70;;;0.98;;
54259;SDS011;40172;53.022;7.012;2023-04-03T05:33:57;10.45;;;1.73;;
54259;SDS011;40172;53.022;7.012;2023-04-03T05:36:23;1.77;;;0.82;;
54259;SDS011;40172;53.022;7.012;2023-04-03T05:38:48;2.92;;;1.40;;
54259;SDS011;40172;53.022;7.012;2023-04-03T05:41:14;6.43;;;1.90;;
54259;SDS011;40172;53.022;7.012;2023-04-03T05:43:40;2.30;;;1.10;;
54259;SDS011;40172;53.022;7.012;2023-04-03T05:46:13;3.22;;;1.90;;
54259;SDS011;40172;53.022;7.012;2023-04-03T05:48:40;2.45;;;1.45;;
54259;SDS011;40172;53.022;7.012;2023-04-03T05:51:07;3.35;;;1.50;;
54259;SDS011;40172;53.022;7.012;2023-04-03T05:53:38;2.05;;;1.35;;
54259;SDS011;40172;53.022;7.012;2023-04-03T05:56:04;1.50;;;1.40;;
54259;SDS011;40172;53.022;7.012;2023-04-03T05:58:30;6.28;;;0.90;;
54259;SDS011;40172;53.022;7.012;2023-04-03T06:00:55;6.35;;;1.80;;
54259;SDS011;40172;53.022;7.012;2023-04-03T06:03:22;5.13;;;2.55;;
54259;SDS011;40172;53.022;7.012;2023-04-03T06:05:47;6.65;;;2.35;;
54259;SDS011;40172;53.022;7.012;2023-04-03T06:08:13;4.03;;;2.25;;
54259;SDS011;40172;53.022;7.012;2023-04-03T06:10:39;3.75;;;1.85;;
54259;SDS011;40172;53.022;7.012;2023-04-03T06:13:05;1.00;;;0.88;;
54259;SDS011;40172;53.022;7.012;2023-04-03T06:15:31;15.63;;;1.38;;
54259;SDS011;40172;53.022;7.012;2023-04-03T06:17:56;4.93;;;1.90;;
54259;SDS011;40172;53.022;7.012;2023-04-03T06:20:22;6.57;;;2.88;;
54259;SDS011;40172;53.022;7.012;2023-04-03T06:22:48;4.32;;;1.42;;
54259;SDS011;40172;53.022;7.012;2023-04-03T06:25:13;3.63;;;1.67;;
54259;SDS011;40172;53.022;7.012;2023-04-03T06:27:39;4.65;;;1.95;;
54259;SDS011;40172;53.022;7.012;2023-04-03T06:30:05;4.15;;;1.45;;
54259;SDS011;40172;53.022;7.012;2023-04-03T06:32:31;5.70;;;1.95;;
54259;SDS011;40172;53.022;7.012;2023-04-03T06:34:57;5.13;;;1.88;;
54259;SDS011;40172;53.022;7.012;2023-04-03T06:37:23;3.85;;;1.60;;
54259;SDS011;40172;53.022;7.012;2023-04-03T06:39:53;7.90;;;1.25;;
54259;SDS011;40172;53.022;7.012;2023-04-03T06:42:20;6.80;;;1.60;;
54259;SDS011;40172;53.022;7.012;2023-04-03T06:44:46;2.88;;;1.40;;
54259;SDS011;40172;53.022;7.012;2023-04-03T06:47:15;12.23;;;2.22;;
54259;SDS011;40172;53.022;7.012;2023-04-03T06:49:42;6.65;;;2.13;;
54259;SDS011;40172;53.022;7.012;2023-04-03T06:52:08;3.53;;;2.05;;
54259;SDS011;40172;53.022;7.012;2023-04-03T06:54:35;3.92;;;1.77;;
54259;SDS011;40172;53.022;7.012;2023-04-03T06:57:00;36.42;;;3.53;;
54259;SDS011;40172;53.022;7.012;2023-04-03T06:59:27;6.03;;;2.10;;
54259;SDS011;40172;53.022;7.012;2023-04-03T07:01:53;7.80;;;1.92;;
54259;SDS011;40172;53.022;7.012;2023-04-03T07:04:18;5.40;;;1.88;;
54259;SDS011;40172;53.022;7.012;2023-04-03T07:06:45;4.60;;;1.67;;
54259;SDS011;40172;53.022;7.012;2023-04-03T07:09:12;7.40;;;2.08;;
54259;SDS011;40172;53.022;7.012;2023-04-03T07:11:38;3.25;;;1.52;;
54259;SDS011;40172;53.022;7.012;2023-04-03T07:14:03;2.55;;;1.30;;
54259;SDS011;40172;53.022;7.012;2023-04-03T07:16:30;18.52;;;4.60;;
54259;SDS011;40172;53.022;7.012;2023-04-03T07:18:56;2.60;;;1.42;;
54259;SDS011;40172;53.022;7.012;2023-04-03T07:21:22;4.97;;;1.80;;
54259;SDS011;40172;53.022;7.012;2023-04-03T07:23:48;4.00;;;2.03;;
54259;SDS011;40172;53.022;7.012;2023-04-03T07:26:14;5.10;;;1.80;;
54259;SDS011;40172;53.022;7.012;2023-04-03T07:28:39;10.90;;;2.00;;
54259;SDS011;40172;53.022;7.012;2023-04-03T07:31:07;9.57;;;2.50;;
54259;SDS011;40172;53.022;7.012;2023-04-03T07:33:38;7.55;;;2.05;;
54259;SDS011;40172;53.022;7.012;2023-04-03T07:36:05;3.65;;;1.98;;
54259;SDS011;40172;53.022;7.012;2023-04-03T07:38:35;1.95;;;1.05;;
54259;SDS011;40172;53.022;7.012;2023-04-03T07:41:01;3.53;;;1.17;;
54259;SDS011;40172;53.022;7.012;2023-04-03T07:43:27;1.40;;;0.90;;
54259;SDS011;40172;53.022;7.012;2023-04-03T07:45:53;2.72;;;1.33;;
54259;SDS011;40172;53.022;7.012;2023-04-03T07:48:23;3.35;;;1.33;;
54259;SDS011;40172;53.022;7.012;2023-04-03T07:50:50;5.10;;;1.45;;
54259;SDS011;40172;53.022;7.012;2023-04-03T07:53:16;1.30;;;0.95;;
54259;SDS011;40172;53.022;7.012;2023-04-03T07:55:42;1.88;;;1.02;;
54259;SDS011;40172;53.022;7.012;2023-04-03T07:58:11;0.80;;;0.57;;
54259;SDS011;40172;53.022;7.012;2023-04-03T08:00:39;6.63;;;1.63;;
54259;SDS011;40172;53.022;7.012;2023-04-03T08:03:06;2.65;;;1.00;;
54259;SDS011;40172;53.022;7.012;2023-04-03T08:05:36;13.52;;;1.00;;
54259;SDS011;40172;53.022;7.012;2023-04-03T08:08:02;4.15;;;1.02;;
54259;SDS011;40172;53.022;7.012;2023-04-03T08:10:30;6.78;;;2.33;;
54259;SDS011;40172;53.022;7.012;2023-04-03T08:12:56;1.90;;;1.17;;
54259;SDS011;40172;53.022;7.012;2023-04-03T08:15:22;8.60;;;2.25;;
54259;SDS011;40172;53.022;7.012;2023-04-03T08:17:47;1.13;;;0.73;;
54259;SDS011;40172;53.022;7.012;2023-04-03T08:20:13;0.93;;;0.45;;
54259;SDS011;40172;53.022;7.012;2023-04-03T08:22:39;1.80;;;0.80;;
54259;SDS011;40172;53.022;7.012;2023-04-03T08:25:05;8.15;;;1.17;;
54259;SDS011;40172;53.022;7.012;2023-04-03T08:27:31;1.35;;;0.73;;
54259;SDS011;40172;53.022;7.012;2023-04-03T08:29:57;2.28;;;0.60;;
54259;SDS011;40172;53.022;7.012;2023-04-03T08:32:23;8.15;;;1.35;;
54259;SDS011;40172;53.022;7.012;2023-04-03T08:34:49;3.53;;;0.88;;
54259;SDS011;40172;53.022;7.012;2023-04-03T08:37:15;2.33;;;0.77;;
54259;SDS011;40172;53.022;7.012;2023-04-03T08:39:41;2.17;;;0.75;;
54259;SDS011;40172;53.022;7.012;2023-04-03T08:45:13;3.72;;;1.08;;
54259;SDS011;40172;53.022;7.012;2023-04-03T08:47:52;3.28;;;0.93;;
54259;SDS011;40172;53.022;7.012;2023-04-03T08:50:30;5.10;;;0.85;;
54259;SDS011;40172;53.022;7.012;2023-04-03T08:53:01;2.28;;;0.80;;
54259;SDS011;40172;53.022;7.012;2023-04-03T08:55:33;5.90;;;2.22;;
54259;SDS011;40172;53.022;7.012;2023-04-03T08:58:06;6.32;;;2.08;;
54259;SDS011;40172;53.022;7.012;2023-04-03T09:00:47;8.25;;;2.25;;
54259;SDS011;40172;53.022;7.012;2023-04-03T09:03:20;4.45;;;1.05;;
54259;SDS011;40172;53.022;7.012;2023-04-03T09:05:48;6.47;;;1.00;;
54259;SDS011;40172;53.022;7.012;2023-04-03T09:08:29;3.97;;;1.67;;
54259;SDS011;40172;53.022;7.012;2023-04-03T09:16:25;5.13;;;1.63;;
54259;SDS011;40172;53.022;7.012;2023-04-03T09:21:50;5.93;;;1.73;;
54259;SDS011;40172;53.022;7.012;2023-04-03T09:24:16;0.73;;;0.65;;
54259;SDS011;40172;53.022;7.012;2023-04-03T09:26:56;8.00;;;1.90;;
54259;SDS011;40172;53.022;7.012;2023-04-03T09:29:28;6.13;;;1.70;;
54259;SDS011;40172;53.022;7.012;2023-04-03T09:32:01;2.15;;;1.30;;
54259;SDS011;40172;53.022;7.012;2023-04-03T09:34:37;4.75;;;1.70;;
54259;SDS011;40172;53.022;7.012;2023-04-03T09:37:06;5.78;;;1.58;;
54259;SDS011;40172;53.022;7.012;2023-04-03T09:39:49;4.22;;;1.40;;
54259;SDS011;40172;53.022;7.012;2023-04-03T09:42:19;4.60;;;1.52;;
54259;SDS011;40172;53.022;7.012;2023-04-03T09:44:57;4.78;;;1.67;;
54259;SDS011;40172;53.022;7.012;2023-04-03T09:47:32;4.53;;;1.42;;
54259;SDS011;40172;53.022;7.012;2023-04-03T09:52:41;5.57;;;1.70;;
54259;SDS011;40172;53.022;7.012;2023-04-03T09:55:08;3.35;;;1.42;;
54259;SDS011;40172;53.022;7.012;2023-04-03T10:00:28;4.18;;;1.20;;
54259;SDS011;40172;53.022;7.012;2023-04-03T10:03:02;2.33;;;1.10;;
54259;SDS011;40172;53.022;7.012;2023-04-03T10:08:09;5.30;;;0.90;;
54259;SDS011;40172;53.022;7.012;2023-04-03T10:10:37;2.63;;;0.73;;
54259;SDS011;40172;53.022;7.012;2023-04-03T10:13:10;5.38;;;1.50;;
54259;SDS011;40172;53.022;7.012;2023-04-03T10:15:46;3.72;;;1.40;;
54259;SDS011;40172;53.022;7.012;2023-04-03T10:21:06;5.30;;;1.42;;
54259;SDS011;40172;53.022;7.012;2023-04-03T10:23:40;5.63;;;1.50;;
54259;SDS011;40172;53.022;7.012;2023-04-03T10:26:29;3.75;;;1.02;;
54259;SDS011;40172;53.022;7.012;2023-04-03T10:29:13;3.25;;;1.20;;
54259;SDS011;40172;53.022;7.012;2023-04-03T10:32:19;4.32;;;1.60;;
54259;SDS011;40172;53.022;7.012;2023-04-03T10:35:02;4.55;;;1.63;;
54259;SDS011;40172;53.022;7.012;2023-04-03T10:40:34;4.90;;;1.33;;
54259;SDS011;40172;53.022;7.012;2023-04-03T10:43:32;4.15;;;1.48;;
54259;SDS011;40172;53.022;7.012;2023-04-03T10:53:51;5.20;;;1.42;;
54259;SDS011;40172;53.022;7.012;2023-04-03T10:56:40;3.42;;;1.55;;
54259;SDS011;40172;53.022;7.012;2023-04-03T11:01:55;2.90;;;1.40;;
54259;SDS011;40172;53.022;7.012;2023-04-03T11:04:26;4.68;;;1.65;;
54259;SDS011;40172;53.022;7.012;2023-04-03T11:07:00;6.57;;;1.67;;
54259;SDS011;40172;53.022;7.012;2023-04-03T11:09:33;2.30;;;1.30;;
54259;SDS011;40172;53.022;7.012;2023-04-03T11:14:50;2.20;;;1.20;;
54259;SDS011;40172;53.022;7.012;2023-04-03T11:22:36;5.70;;;1.52;;
54259;SDS011;40172;53.022;7.012;2023-04-03T11:25:25;3.03;;;1.42;;
54259;SDS011;40172;53.022;7.012;2023-04-03T11:38:43;3.03;;;1.50;;
54259;SDS011;40172;53.022;7.012;2023-04-03T11:41:12;5.13;;;1.50;;
54259;SDS011;40172;53.022;7.012;2023-04-03T11:44:00;2.33;;;1.20;;
54259;SDS011;40172;53.022;7.012;2023-04-03T12:16:22;4.10;;;1.67;;
54259;SDS011;40172;53.022;7.012;2023-04-03T12:30:05;4.00;;;1.60;;
54259;SDS011;40172;53.022;7.012;2023-04-03T12:32:56;3.88;;;1.30;;
54259;SDS011;40172;53.022;7.012;2023-04-03T12:46:26;3.75;;;1.70;;
54259;SDS011;40172;53.022;7.012;2023-04-03T12:49:00;5.90;;;1.70;;
54259;SDS011;40172;53.022;7.012;2023-04-03T12:51:33;3.50;;;1.67;;
54259;SDS011;40172;53.022;7.012;2023-04-03T12:54:27;4.78;;;1.60;;
54259;SDS011;40172;53.022;7.012;2023-04-03T12:59:51;5.13;;;1.80;;
54259;SDS011;40172;53.022;7.012;2023-04-03T13:02:21;5.68;;;1.80;;
54259;SDS011;40172;53.022;7.012;2023-04-03T13:04:48;5.82;;;1.90;;
54259;SDS011;40172;53.022;7.012;2023-04-03T13:10:03;3.58;;;1.67;;
54259;SDS011;40172;53.022;7.012;2023-04-03T13:12:32;4.25;;;1.60;;
54259;SDS011;40172;53.022;7.012;2023-04-03T13:15:23;4.72;;;1.80;;
54259;SDS011;40172;53.022;7.012;2023-04-03T13:18:23;3.42;;;1.60;;
54259;SDS011;40172;53.022;7.012;2023-04-03T13:21:06;5.15;;;1.67;;
54259;SDS011;40172;53.022;7.012;2023-04-03T13:23:38;4.00;;;1.40;;
54259;SDS011;40172;53.022;7.012;2023-04-03T13:26:07;3.28;;;1.40;;
54259;SDS011;40172;53.022;7.012;2023-04-03T13:28:34;5.53;;;1.70;;
54259;SDS011;40172;53.022;7.012;2023-04-03T13:31:03;4.22;;;1.58;;
54259;SDS011;40172;53.022;7.012;2023-04-03T13:33:43;3.67;;;1.50;;
54259;SDS011;40172;53.022;7.012;2023-04-03T13:36:26;4.63;;;1.50;;
54259;SDS011;40172;53.022;7.012;2023-04-03T13:39:17;4.88;;;1.75;;
54259;SDS011;40172;53.022;7.012;2023-04-03T13:41:49;3.33;;;1.50;;
54259;SDS011;40172;53.022;7.012;2023-04-03T13:46:49;3.17;;;1.50;;
54259;SDS011;40172;53.022;7.012;2023-04-03T13:52:01;4.43;;;1.35;;
54259;SDS011;40172;53.022;7.012;2023-04-03T13:54:55;3.42;;;1.42;;
54259;SDS011;40172;53.022;7.012;2023-04-03T13:57:26;5.05;;;1.50;;
54259;SDS011;40172;53.022;7.012;2023-04-03T13:59:52;3.10;;;1.35;;
54259;SDS011;40172;53.022;7.012;2023-04-03T14:02:19;2.85;;;1.30;;
54259;SDS011;40172;53.022;7.012;2023-04-03T14:04:50;4.30;;;1.42;;
54259;SDS011;40172;53.022;7.012;2023-04-03T14:07:21;4.03;;;1.40;;
54259;SDS011;40172;53.022;7.012;2023-04-03T14:09:47;3.92;;;1.45;;
54259;SDS011;40172;53.022;7.012;2023-04-03T14:12:25;2.50;;;1.20;;
54259;SDS011;40172;53.022;7.012;2023-04-03T14:14:56;4.22;;;1.30;;
54259;SDS011;40172;53.022;7.012;2023-04-03T14:17:23;5.15;;;1.50;;
54259;SDS011;40172;53.022;7.012;2023-04-03T14:19:51;2.10;;;1.15;;
54259;SDS011;40172;53.022;7.012;2023-04-03T14:22:28;3.47;;;1.55;;
54259;SDS011;40172;53.022;7.012;2023-04-03T14:24:56;4.28;;;1.77;;
54259;SDS011;40172;53.022;7.012;2023-04-03T14:27:56;2.90;;;1.50;;
54259;SDS011;40172;53.022;7.012;2023-04-03T14:30:18;4.15;;;1.50;;
54259;SDS011;40172;53.022;7.012;2023-04-03T14:32:58;5.00;;;1.65;;
54259;SDS011;40172;53.022;7.012;2023-04-03T14:35:25;3.03;;;1.33;;
54259;SDS011;40172;53.022;7.012;2023-04-03T14:37:51;2.97;;;1.35;;
54259;SDS011;40172;53.022;7.012;2023-04-03T14:40:19;4.95;;;1.40;;
54259;SDS011;40172;53.022;7.012;2023-04-03T14:42:48;3.90;;;1.67;;
54259;SDS011;40172;53.022;7.012;2023-04-03T14:45:15;3.78;;;1.38;;
54259;SDS011;40172;53.022;7.012;2023-04-03T14:47:48;3.20;;;1.50;;
54259;SDS011;40172;53.022;7.012;2023-04-03T14:50:18;4.20;;;1.40;;
54259;SDS011;40172;53.022;7.012;2023-04-03T14:52:47;4.25;;;1.20;;
54259;SDS011;40172;53.022;7.012;2023-04-03T14:55:14;5.35;;;1.45;;
54259;SDS011;40172;53.022;7.012;2023-04-03T14:57:42;5.72;;;1.38;;
54259;SDS011;40172;53.022;7.012;2023-04-03T15:00:16;3.25;;;1.25;;
54259;SDS011;40172;53.022;7.012;2023-04-03T15:02:44;3.00;;;1.58;;
54259;SDS011;40172;53.022;7.012;2023-04-03T15:05:10;7.93;;;1.80;;
54259;SDS011;40172;53.022;7.012;2023-04-03T15:07:37;3.15;;;1.40;;
54259;SDS011;40172;53.022;7.012;2023-04-03T15:10:15;3.75;;;1.20;;
54259;SDS011;40172;53.022;7.012;2023-04-03T15:12:44;4.95;;;1.42;;
54259;SDS011;40172;53.022;7.012;2023-04-03T15:15:10;4.32;;;1.50;;
54259;SDS011;40172;53.022;7.012;2023-04-03T15:17:36;4.00;;;1.50;;
54259;SDS011;40172;53.022;7.012;2023-04-03T15:20:02;4.13;;;1.45;;
54259;SDS011;40172;53.022;7.012;2023-04-03T15:22:31;4.18;;;1.60;;
54259;SDS011;40172;53.022;7.012;2023-04-03T15:24:57;4.05;;;1.60;;
54259;SDS011;40172;53.022;7.012;2023-04-03T15:27:22;2.80;;;1.23;;
54259;SDS011;40172;53.022;7.012;2023-04-03T15:29:48;2.80;;;1.40;;
54259;SDS011;40172;53.022;7.012;2023-04-03T15:32:13;3.65;;;1.40;;
54259;SDS011;40172;53.022;7.012;2023-04-03T15:34:39;3.35;;;1.40;;
54259;SDS011;40172;53.022;7.012;2023-04-03T15:37:05;3.25;;;1.30;;
54259;SDS011;40172;53.022;7.012;2023-04-03T15:39:31;3.78;;;1.55;;
54259;SDS011;40172;53.022;7.012;2023-04-03T15:41:58;2.30;;;1.30;;
54259;SDS011;40172;53.022;7.012;2023-04-03T15:44:33;5.55;;;1.25;;
54259;SDS011;40172;53.022;7.012;2023-04-03T15:46:59;2.40;;;1.30;;
54259;SDS011;40172;53.022;7.012;2023-04-03T15:49:27;4.40;;;1.30;;
54259;SDS011;40172;53.022;7.012;2023-04-03T15:51:53;4.07;;;1.25;;
54259;SDS011;40172;53.022;7.012;2023-04-03T15:54:18;4.70;;;1.50;;
54259;SDS011;40172;53.022;7.012;2023-04-03T15:56:44;3.03;;;1.30;;
54259;SDS011;40172;53.022;7.012;2023-04-03T15:59:09;4.32;;;1.50;;
54259;SDS011;40172;53.022;7.012;2023-04-03T16:01:36;3.45;;;1.45;;
54259;SDS011;40172;53.022;7.012;2023-04-03T16:04:03;3.28;;;1.40;;
54259;SDS011;40172;53.022;7.012;2023-04-03T16:06:31;4.18;;;1.88;;
54259;SDS011;40172;53.022;7.012;2023-04-03T16:08:58;4.90;;;1.55;;
54259;SDS011;40172;53.022;7.012;2023-04-03T16:11:24;4.00;;;1.70;;
54259;SDS011;40172;53.022;7.012;2023-04-03T16:13:51;4.93;;;1.60;;
54259;SDS011;40172;53.022;7.012;2023-04-03T16:16:16;4.85;;;1.80;;
54259;SDS011;40172;53.022;7.012;2023-04-03T16:18:42;4.78;;;1.60;;
54259;SDS011;40172;53.022;7.012;2023-04-03T16:21:08;4.85;;;2.90;;
54259;SDS011;40172;53.022;7.012;2023-04-03T16:23:34;9.20;;;5.90;;
54259;SDS011;40172;53.022;7.012;2023-04-03T16:26:00;15.73;;;10.55;;
54259;SDS011;40172;53.022;7.012;2023-04-03T16:28:26;31.80;;;22.67;;
54259;SDS011;40172;53.022;7.012;2023-04-03T16:30:52;28.42;;;20.08;;
54259;SDS011;40172;53.022;7.012;2023-04-03T16:33:18;8.63;;;4.40;;
54259;SDS011;40172;53.022;7.012;2023-04-03T16:35:46;10.57;;;6.85;;
54259;SDS011;40172;53.022;7.012;2023-04-03T16:38:13;12.38;;;6.47;;
54259;SDS011;40172;53.022;7.012;2023-04-03T16:40:40;18.17;;;12.85;;
54259;SDS011;40172;53.022;7.012;2023-04-03T16:43:06;13.07;;;7.80;;
54259;SDS011;40172;53.022;7.012;2023-04-03T16:45:31;14.35;;;8.27;;
54259;SDS011;40172;53.022;7.012;2023-04-03T16:47:57;11.45;;;7.60;;
54259;SDS011;40172;53.022;7.012;2023-04-03T16:50:23;3.55;;;2.10;;
54259;SDS011;40172;53.022;7.012;2023-04-03T16:52:49;7.18;;;3.17;;
54259;SDS011;40172;53.022;7.012;2023-04-03T16:55:14;7.25;;;3.80;;
54259;SDS011;40172;53.022;7.012;2023-04-03T16:57:40;3.55;;;1.85;;
54259;SDS011;40172;53.022;7.012;2023-04-03T17:00:06;5.28;;;2.70;;
54259;SDS011;40172;53.022;7.012;2023-04-03T17:02:33;9.57;;;6.78;;
54259;SDS011;40172;53.022;7.012;2023-04-03T17:04:58;14.00;;;10.00;;